Time;durP1;ratioP1;P1;durP2;ratioP2;P2;SDS_P1;SDS_P2;PMS_P1;PMS_P2;Temp;Humidity;BMP_temperature;BMP_pressure;BME280_temperature;BME280_humidity;BME280_pressure;Samples;Min_cycle;Max_cycle;Signal;HPM_P1;HPM_P2
2022/04/28 00:00:24;;;;;;;10.21;4.66;;;;;;;;;;356585;150;865214;-61
2022/04/28 00:01:25;;;;;;;9.31;3.91;;;;;;;;;;355101;150;857023;-60
2022/04/28 00:02:28;;;;;;;9.70;3.72;;;;;;;;;;354446;150;857298;-59
2022/04/28 00:03:30;;;;;;;6.05;3.42;;;;;;;;;;357756;150;866362;-59
2022/04/28 00:04:31;;;;;;;7.76;3.63;;;;;;;;;;356508;150;856866;-59
2022/04/28 00:05:35;;;;;;;6.31;3.29;;;;;;;;;;358170;150;864746;-59
2022/04/28 00:06:37;;;;;;;7.42;3.60;;;;;;;;;;355564;150;858599;-60
2022/04/28 00:07:38;;;;;;;6.73;3.37;;;;;;;;;;354362;150;857194;-59
2022/04/28 00:08:40;;;;;;;5.89;3.17;;;;;;;;;;354645;150;859477;-59
2022/04/28 00:09:41;;;;;;;7.22;3.29;;;;;;;;;;355138;150;858663;-59
2022/04/28 00:10:43;;;;;;;5.29;3.51;;;;;;;;;;355626;150;857866;-59
2022/04/28 00:11:45;;;;;;;5.60;3.34;;;;;;;;;;355865;150;865856;-59
2022/04/28 00:12:46;;;;;;;5.36;2.94;;;;;;;;;;356527;150;857730;-59
2022/04/28 00:13:48;;;;;;;8.36;3.41;;;;;;;;;;356463;149;857213;-59
2022/04/28 00:14:49;;;;;;;9.71;3.61;;;;;;;;;;355608;150;857458;-59
2022/04/28 00:15:51;;;;;;;7.14;3.21;;;;;;;;;;356487;150;857705;-60
2022/04/28 00:16:52;;;;;;;6.61;3.37;;;;;;;;;;355061;150;857437;-60
2022/04/28 00:17:54;;;;;;;12.06;4.31;;;;;;;;;;355241;150;865779;-60
2022/04/28 00:18:55;;;;;;;7.11;3.38;;;;;;;;;;355968;150;866606;-60
2022/04/28 00:19:57;;;;;;;7.22;3.45;;;;;;;;;;355885;150;859061;-60
2022/04/28 00:20:59;;;;;;;7.78;3.31;;;;;;;;;;355519;150;859187;-59
2022/04/28 00:22:00;;;;;;;7.49;3.86;;;;;;;;;;353697;150;859163;-60
2022/04/28 00:23:02;;;;;;;5.39;3.19;;;;;;;;;;354769;149;858291;-60
2022/04/28 00:24:04;;;;;;;5.19;2.80;;;;;;;;;;356234;150;860589;-60
2022/04/28 00:25:06;;;;;;;6.96;3.79;;;;;;;;;;356177;149;864941;-59
2022/04/28 00:26:09;;;;;;;5.72;2.98;;;;;;;;;;352933;150;858628;-59
2022/04/28 00:27:10;;;;;;;6.90;3.36;;;;;;;;;;355253;150;858057;-59
2022/04/28 00:28:12;;;;;;;8.98;3.23;;;;;;;;;;356854;150;862411;-60
2022/04/28 00:29:13;;;;;;;6.70;3.46;;;;;;;;;;356918;150;857119;-61
2022/04/28 00:30:15;;;;;;;4.68;3.24;;;;;;;;;;356399;150;857226;-59
2022/04/28 00:31:17;;;;;;;7.26;3.52;;;;;;;;;;355307;150;864772;-61
2022/04/28 00:32:18;;;;;;;6.62;3.24;;;;;;;;;;356432;150;856992;-58
2022/04/28 00:33:20;;;;;;;6.68;3.31;;;;;;;;;;355549;149;857257;-58
2022/04/28 00:34:22;;;;;;;9.03;3.35;;;;;;;;;;355287;149;857289;-59
2022/04/28 00:35:23;;;;;;;4.74;2.92;;;;;;;;;;356029;150;857667;-61
2022/04/28 00:36:25;;;;;;;6.20;3.33;;;;;;;;;;356615;150;859314;-60
2022/04/28 00:37:26;;;;;;;6.17;3.24;;;;;;;;;;354359;150;858810;-59
2022/04/28 00:38:28;;;;;;;7.67;3.44;;;;;;;;;;354843;150;858944;-60
2022/04/28 00:39:29;;;;;;;7.69;3.51;;;;;;;;;;355810;150;858590;-60
2022/04/28 00:40:31;;;;;;;8.05;3.31;;;;;;;;;;357527;150;858014;-59
2022/04/28 00:41:32;;;;;;;7.08;2.94;;;;;;;;;;356919;150;858163;-60
2022/04/28 00:42:34;;;;;;;7.38;3.09;;;;;;;;;;355055;150;857813;-59
2022/04/28 00:43:49;;;;;;;4.15;2.64;;;;;;;;;;353834;150;857380;-59
2022/04/28 00:44:50;;;;;;;7.19;3.06;;;;;;;;;;352839;150;857242;-60
2022/04/28 00:45:52;;;;;;;5.79;3.16;;;;;;;;;;353507;152;858210;-60
2022/04/28 00:46:53;;;;;;;4.53;2.65;;;;;;;;;;351037;152;859245;-60
2022/04/28 00:50:38;;;;;;;5.73;2.89;;;;;;;;;;351025;152;864709;-60
2022/04/28 00:51:40;;;;;;;8.23;2.91;;;;;;;;;;351673;152;864788;-61
2022/04/28 00:52:42;;;;;;;5.97;3.10;;;;;;;;;;351053;152;864759;-60
2022/04/28 00:53:44;;;;;;;6.22;2.62;;;;;;;;;;353637;152;858903;-60
2022/04/28 00:54:46;;;;;;;7.39;2.93;;;;;;;;;;352565;151;861363;-60
2022/04/28 00:55:48;;;;;;;6.60;2.69;;;;;;;;;;340898;155;859113;-61
2022/04/28 00:56:49;;;;;;;7.72;3.04;;;;;;;;;;341461;157;858276;-61
2022/04/28 00:57:51;;;;;;;9.47;3.29;;;;;;;;;;344042;155;864900;-59
2022/04/28 00:58:53;;;;;;;4.94;2.29;;;;;;;;;;341166;155;866042;-57
2022/04/28 00:59:55;;;;;;;9.58;2.74;;;;;;;;;;341372;155;859358;-59
2022/04/28 01:00:56;;;;;;;5.95;3.00;;;;;;;;;;344467;155;860551;-59
2022/04/28 01:01:58;;;;;;;6.07;2.66;;;;;;;;;;345195;155;866330;-61
2022/04/28 01:02:59;;;;;;;5.71;2.59;;;;;;;;;;345911;155;859202;-62
2022/04/28 01:04:01;;;;;;;5.52;2.62;;;;;;;;;;345411;155;857855;-59
2022/04/28 01:05:02;;;;;;;5.98;2.57;;;;;;;;;;345685;155;857288;-59
2022/04/28 01:06:04;;;;;;;5.00;2.49;;;;;;;;;;346993;155;857808;-60
2022/04/28 01:07:06;;;;;;;3.52;2.26;;;;;;;;;;346168;155;857200;-60
2022/04/28 01:08:07;;;;;;;6.03;2.70;;;;;;;;;;345601;155;858978;-60
2022/04/28 01:09:09;;;;;;;5.92;2.59;;;;;;;;;;347143;155;858710;-60
2022/04/28 01:10:11;;;;;;;6.87;2.70;;;;;;;;;;345805;155;857200;-60
2022/04/28 01:11:13;;;;;;;5.34;2.31;;;;;;;;;;345370;154;857173;-59
2022/04/28 01:12:15;;;;;;;5.95;2.49;;;;;;;;;;345400;154;857339;-59
2022/04/28 01:13:16;;;;;;;4.94;2.66;;;;;;;;;;346195;155;859527;-59
2022/04/28 01:14:18;;;;;;;2.95;2.42;;;;;;;;;;345439;155;866744;-59
2022/04/28 01:15:19;;;;;;;7.07;2.95;;;;;;;;;;345265;155;866444;-60
2022/04/28 01:16:22;;;;;;;4.41;2.54;;;;;;;;;;345433;155;858937;-60
2022/04/28 01:17:23;;;;;;;6.28;2.90;;;;;;;;;;345001;155;864710;-60
2022/04/28 01:18:25;;;;;;;5.41;2.99;;;;;;;;;;344213;153;858310;-59
2022/04/28 01:19:27;;;;;;;7.74;2.82;;;;;;;;;;345017;153;866414;-58
2022/04/28 01:20:28;;;;;;;4.59;2.66;;;;;;;;;;345036;155;859081;-59
2022/04/28 01:21:30;;;;;;;4.34;2.54;;;;;;;;;;340860;156;857908;-60
2022/04/28 01:22:32;;;;;;;6.79;2.43;;;;;;;;;;341768;155;864701;-59
2022/04/28 01:23:34;;;;;;;6.04;2.45;;;;;;;;;;339685;157;857213;-59
2022/04/28 01:24:36;;;;;;;4.91;2.53;;;;;;;;;;337286;157;857284;-59
2022/04/28 01:25:37;;;;;;;6.07;2.68;;;;;;;;;;338896;158;858219;-59
2022/04/28 01:26:39;;;;;;;5.53;2.49;;;;;;;;;;344629;151;859008;-60
2022/04/28 01:27:40;;;;;;;5.07;2.68;;;;;;;;;;346382;155;865610;-59
2022/04/28 01:28:42;;;;;;;5.43;2.66;;;;;;;;;;344534;155;857246;-59
2022/04/28 01:29:43;;;;;;;3.89;2.31;;;;;;;;;;345029;155;857191;-61
2022/04/28 01:30:45;;;;;;;4.12;2.27;;;;;;;;;;344558;153;857687;-61
2022/04/28 01:31:47;;;;;;;4.72;2.46;;;;;;;;;;343159;155;864787;-61
2022/04/28 01:32:49;;;;;;;6.19;2.91;;;;;;;;;;341270;157;864915;-61
2022/04/28 01:33:50;;;;;;;7.35;3.24;;;;;;;;;;343916;155;866589;-61
2022/04/28 01:34:52;;;;;;;6.82;2.54;;;;;;;;;;343448;155;857178;-59
2022/04/28 01:35:53;;;;;;;8.29;2.91;;;;;;;;;;340608;155;858801;-60
2022/04/28 01:36:55;;;;;;;4.59;2.77;;;;;;;;;;338494;158;858966;-60
2022/04/28 01:37:57;;;;;;;7.11;3.69;;;;;;;;;;344968;155;864911;-60
2022/04/28 01:38:59;;;;;;;6.01;3.43;;;;;;;;;;344339;155;857328;-60
2022/04/28 01:40:00;;;;;;;9.80;3.26;;;;;;;;;;345802;155;857266;-60
2022/04/28 01:41:02;;;;;;;7.44;3.66;;;;;;;;;;345873;155;859002;-60
2022/04/28 01:42:05;;;;;;;6.52;3.57;;;;;;;;;;339523;158;859132;-59
2022/04/28 01:43:07;;;;;;;5.78;3.01;;;;;;;;;;346922;155;865631;-59
2022/04/28 01:44:08;;;;;;;7.39;3.12;;;;;;;;;;345876;155;857368;-59
2022/04/28 01:45:10;;;;;;;8.77;3.14;;;;;;;;;;340400;157;858663;-60
2022/04/28 01:46:13;;;;;;;6.33;3.39;;;;;;;;;;347265;154;859093;-60
2022/04/28 01:47:15;;;;;;;5.88;3.15;;;;;;;;;;341216;157;859722;-60
2022/04/28 01:48:17;;;;;;;5.49;2.89;;;;;;;;;;340503;156;857308;-59
2022/04/28 01:49:18;;;;;;;6.17;2.95;;;;;;;;;;340710;156;857209;-59
2022/04/28 01:50:20;;;;;;;6.24;3.16;;;;;;;;;;343112;156;857298;-61
2022/04/28 01:55:21;;;;;;;8.69;3.36;;;;;;;;;;342296;156;857265;-59
2022/04/28 01:56:23;;;;;;;5.91;3.17;;;;;;;;;;342927;153;858026;-58
2022/04/28 01:57:28;;;;;;;5.79;2.96;;;;;;;;;;346189;154;867205;-60
2022/04/28 01:58:29;;;;;;;7.07;3.24;;;;;;;;;;339422;158;859145;-60
2022/04/28 01:59:31;;;;;;;6.34;3.14;;;;;;;;;;341107;156;857626;-59
2022/04/28 02:00:34;;;;;;;7.49;3.13;;;;;;;;;;341496;155;857403;-59
2022/04/28 02:01:35;;;;;;;11.05;3.67;;;;;;;;;;341711;157;860184;-62
2022/04/28 02:02:37;;;;;;;6.38;3.01;;;;;;;;;;342413;157;858931;-61
2022/04/28 02:03:38;;;;;;;7.77;2.56;;;;;;;;;;346279;155;859464;-61
2022/04/28 02:04:40;;;;;;;6.48;3.16;;;;;;;;;;340273;158;866950;-61
2022/04/28 02:05:41;;;;;;;6.13;2.90;;;;;;;;;;342270;157;859921;-61
2022/04/28 02:06:43;;;;;;;8.71;3.00;;;;;;;;;;337461;157;859024;-61
2022/04/28 02:07:44;;;;;;;11.04;3.61;;;;;;;;;;341422;157;857633;-61
2022/04/28 02:08:46;;;;;;;6.19;3.13;;;;;;;;;;340919;156;857285;-60
2022/04/28 02:09:47;;;;;;;5.64;3.04;;;;;;;;;;347085;154;857334;-60
2022/04/28 02:10:49;;;;;;;4.96;2.88;;;;;;;;;;339778;156;857260;-59
2022/04/28 02:11:51;;;;;;;4.93;2.66;;;;;;;;;;342150;154;864693;-60
2022/04/28 02:12:52;;;;;;;8.36;3.35;;;;;;;;;;341409;157;858970;-60
2022/04/28 02:13:54;;;;;;;9.14;3.09;;;;;;;;;;342264;157;865665;-60
2022/04/28 02:14:55;;;;;;;5.89;3.02;;;;;;;;;;342074;157;857302;-59
2022/04/28 02:15:57;;;;;;;8.39;2.89;;;;;;;;;;342462;154;857251;-60
2022/04/28 02:16:58;;;;;;;5.49;3.12;;;;;;;;;;340178;156;859011;-60
2022/04/28 02:18:00;;;;;;;6.86;3.07;;;;;;;;;;347498;154;866257;-60
2022/04/28 02:19:01;;;;;;;7.88;3.06;;;;;;;;;;344762;154;859094;-60
2022/04/28 02:20:05;;;;;;;4.88;2.98;;;;;;;;;;345508;154;858268;-60
2022/04/28 02:21:06;;;;;;;6.38;3.20;;;;;;;;;;343065;154;859441;-60
2022/04/28 02:22:08;;;;;;;8.04;3.24;;;;;;;;;;346450;154;859235;-60
2022/04/28 02:23:09;;;;;;;8.36;3.47;;;;;;;;;;344310;154;866571;-61
2022/04/28 02:24:11;;;;;;;7.66;3.85;;;;;;;;;;346716;154;857365;-61
2022/04/28 02:25:12;;;;;;;10.00;4.73;;;;;;;;;;345920;154;857089;-61
2022/04/28 02:26:14;;;;;;;14.43;5.54;;;;;;;;;;347134;154;857217;-61
2022/04/28 02:27:16;;;;;;;6.26;3.73;;;;;;;;;;346545;154;857248;-60
2022/04/28 02:28:17;;;;;;;15.56;5.94;;;;;;;;;;344320;154;857200;-60
2022/04/28 02:29:19;;;;;;;20.34;6.68;;;;;;;;;;345228;154;858955;-60
2022/04/28 02:30:21;;;;;;;22.35;6.87;;;;;;;;;;346255;154;859100;-61
2022/04/28 02:31:23;;;;;;;7.46;3.53;;;;;;;;;;345605;154;858925;-61
2022/04/28 02:32:24;;;;;;;8.55;3.36;;;;;;;;;;346076;154;858093;-60
2022/04/28 02:33:26;;;;;;;5.16;2.89;;;;;;;;;;346554;154;857213;-60
2022/04/28 02:34:27;;;;;;;8.04;3.09;;;;;;;;;;345945;154;857227;-60
2022/04/28 02:35:29;;;;;;;6.71;2.84;;;;;;;;;;346386;154;859839;-59
2022/04/28 02:36:30;;;;;;;6.91;3.04;;;;;;;;;;339674;155;858935;-62
2022/04/28 02:37:32;;;;;;;4.42;2.89;;;;;;;;;;340827;156;858191;-59
2022/04/28 02:38:33;;;;;;;6.33;3.14;;;;;;;;;;342290;156;857233;-59
2022/04/28 02:39:35;;;;;;;7.76;3.48;;;;;;;;;;342006;157;858980;-59
2022/04/28 02:40:37;;;;;;;5.46;2.95;;;;;;;;;;338519;158;859064;-59
2022/04/28 02:41:39;;;;;;;8.22;3.11;;;;;;;;;;338627;158;865045;-59
2022/04/28 02:42:41;;;;;;;9.32;3.22;;;;;;;;;;341442;154;867017;-59
2022/04/28 02:43:42;;;;;;;6.35;3.03;;;;;;;;;;341660;157;859766;-59
2022/04/28 02:44:44;;;;;;;6.91;3.21;;;;;;;;;;343093;154;857167;-59
2022/04/28 02:45:46;;;;;;;6.90;3.29;;;;;;;;;;345043;154;857364;-59
2022/04/28 02:46:48;;;;;;;8.09;3.27;;;;;;;;;;345263;154;858950;-59
2022/04/28 03:00:12;;;;;;;7.51;3.28;;;;;;;;;;372108;141;880896;-59
2022/04/28 03:01:14;;;;;;;6.17;3.13;;;;;;;;;;363947;146;857162;-59
2022/04/28 03:02:15;;;;;;;6.46;3.56;;;;;;;;;;360755;147;857295;-59
2022/04/28 03:03:17;;;;;;;6.40;3.44;;;;;;;;;;357836;148;866007;-59
2022/04/28 03:04:18;;;;;;;6.08;3.14;;;;;;;;;;358573;148;857241;-60
2022/04/28 03:05:20;;;;;;;5.57;3.23;;;;;;;;;;358415;147;864690;-59
2022/04/28 03:11:47;;;;;;;5.57;3.07;;;;;;;;;;357074;148;865218;-59
2022/04/28 03:12:48;;;;;;;6.24;3.48;;;;;;;;;;358231;150;866474;-59
2022/04/28 03:13:50;;;;;;;8.94;3.48;;;;;;;;;;356694;149;864834;-59
2022/04/28 03:14:52;;;;;;;7.43;3.77;;;;;;;;;;356501;150;857128;-60
2022/04/28 03:15:53;;;;;;;9.04;3.17;;;;;;;;;;358718;149;857244;-60
2022/04/28 03:16:55;;;;;;;8.34;3.03;;;;;;;;;;358635;149;857822;-58
2022/04/28 03:17:57;;;;;;;6.37;3.73;;;;;;;;;;359155;148;866463;-59
2022/04/28 03:18:58;;;;;;;12.61;3.51;;;;;;;;;;362455;147;857203;-60
2022/04/28 03:20:00;;;;;;;8.05;3.81;;;;;;;;;;359417;147;859110;-58
2022/04/28 03:21:02;;;;;;;10.09;3.39;;;;;;;;;;358380;149;857272;-59
2022/04/28 03:22:03;;;;;;;8.59;3.51;;;;;;;;;;357819;147;859246;-59
2022/04/28 03:23:05;;;;;;;6.66;3.10;;;;;;;;;;357869;148;865185;-61
2022/04/28 03:24:07;;;;;;;12.44;3.93;;;;;;;;;;358091;149;867022;-61
2022/04/28 03:25:09;;;;;;;9.86;4.36;;;;;;;;;;357751;148;860366;-61
2022/04/28 03:26:11;;;;;;;8.24;3.40;;;;;;;;;;358026;148;859008;-61
2022/04/28 03:27:13;;;;;;;8.31;3.66;;;;;;;;;;358480;147;866788;-59
2022/04/28 03:28:14;;;;;;;5.80;2.87;;;;;;;;;;358557;150;866764;-61
2022/04/28 03:29:16;;;;;;;7.74;2.71;;;;;;;;;;357441;150;866221;-59
2022/04/28 03:30:19;;;;;;;4.64;2.42;;;;;;;;;;357435;147;857200;-60
2022/04/28 03:31:21;;;;;;;4.54;2.29;;;;;;;;;;357041;149;858647;-59
2022/04/28 03:32:22;;;;;;;5.04;2.63;;;;;;;;;;358825;148;864674;-59
2022/04/28 03:33:24;;;;;;;4.78;2.49;;;;;;;;;;359166;149;866584;-60
2022/04/28 03:34:25;;;;;;;4.29;2.04;;;;;;;;;;357883;149;858995;-59
2022/04/28 03:35:27;;;;;;;5.21;2.26;;;;;;;;;;357808;148;866526;-60
2022/04/28 03:37:49;;;;;;;6.14;2.28;;;;;;;;;;355393;147;864820;-61
2022/04/28 03:38:51;;;;;;;4.85;2.39;;;;;;;;;;358187;147;864674;-58
2022/04/28 03:39:52;;;;;;;4.37;2.49;;;;;;;;;;354401;150;865248;-59
2022/04/28 03:40:54;;;;;;;4.36;2.01;;;;;;;;;;358788;147;859025;-59
2022/04/28 03:41:56;;;;;;;3.84;2.09;;;;;;;;;;359529;149;866632;-58
2022/04/28 03:42:58;;;;;;;4.51;1.93;;;;;;;;;;359124;148;859203;-62
2022/04/28 03:43:59;;;;;;;2.78;1.71;;;;;;;;;;359011;148;859758;-58
2022/04/28 03:45:01;;;;;;;4.59;2.10;;;;;;;;;;357069;150;866472;-58
2022/04/28 03:46:03;;;;;;;5.46;2.21;;;;;;;;;;356601;148;857273;-59
2022/04/28 03:47:05;;;;;;;4.20;1.77;;;;;;;;;;357819;150;857424;-59
2022/04/28 03:48:10;;;;;;;4.54;2.03;;;;;;;;;;357626;149;859007;-58
2022/04/28 03:49:11;;;;;;;3.39;1.88;;;;;;;;;;359817;147;864835;-59
2022/04/28 03:50:14;;;;;;;3.54;1.67;;;;;;;;;;356746;147;859687;-59
2022/04/28 03:51:15;;;;;;;2.24;1.59;;;;;;;;;;359233;149;864777;-59
2022/04/28 03:52:17;;;;;;;4.86;2.00;;;;;;;;;;359297;147;864978;-59
2022/04/28 03:53:19;;;;;;;2.49;1.94;;;;;;;;;;358908;148;857177;-60
2022/04/28 03:54:21;;;;;;;3.21;1.73;;;;;;;;;;359708;147;857169;-60
2022/04/28 03:55:23;;;;;;;4.67;1.90;;;;;;;;;;357663;148;857219;-59
2022/04/28 03:56:25;;;;;;;3.23;2.05;;;;;;;;;;357140;148;857273;-59
2022/04/28 03:57:26;;;;;;;4.07;1.93;;;;;;;;;;358373;147;857290;-59
2022/04/28 03:58:28;;;;;;;4.95;1.94;;;;;;;;;;358677;148;865715;-58
2022/04/28 03:59:30;;;;;;;4.65;2.00;;;;;;;;;;358601;149;857563;-59
2022/04/28 04:00:32;;;;;;;4.30;2.21;;;;;;;;;;354228;147;864837;-59
2022/04/28 04:01:33;;;;;;;4.00;1.99;;;;;;;;;;352661;151;865388;-60
2022/04/28 04:02:35;;;;;;;2.80;1.96;;;;;;;;;;354801;151;858860;-59
2022/04/28 04:03:37;;;;;;;3.06;2.25;;;;;;;;;;354511;151;860373;-59
2022/04/28 04:04:39;;;;;;;5.14;1.84;;;;;;;;;;353250;151;858636;-60
2022/04/28 04:05:41;;;;;;;5.35;2.10;;;;;;;;;;353622;150;858297;-59
2022/04/28 04:06:43;;;;;;;2.29;1.87;;;;;;;;;;353534;151;859376;-59
2022/04/28 04:07:45;;;;;;;3.92;2.11;;;;;;;;;;354935;151;858085;-58
2022/04/28 04:08:46;;;;;;;5.21;1.99;;;;;;;;;;352902;150;864679;-59
2022/04/28 04:09:48;;;;;;;6.39;2.21;;;;;;;;;;354211;151;866588;-58
2022/04/28 04:10:50;;;;;;;7.56;2.24;;;;;;;;;;354178;151;858947;-57
2022/04/28 04:11:51;;;;;;;6.17;3.24;;;;;;;;;;352305;151;865920;-59
2022/04/28 04:12:53;;;;;;;9.35;3.33;;;;;;;;;;354173;151;864756;-58
2022/04/28 04:13:54;;;;;;;12.27;4.59;;;;;;;;;;352886;151;857275;-58
2022/04/28 04:14:56;;;;;;;13.03;4.08;;;;;;;;;;352190;151;858951;-58
2022/04/28 04:15:59;;;;;;;8.57;3.51;;;;;;;;;;353872;151;860009;-59
2022/04/28 04:17:01;;;;;;;9.65;3.53;;;;;;;;;;353111;151;858068;-59
2022/04/28 04:18:03;;;;;;;7.94;3.15;;;;;;;;;;352505;151;857744;-60
2022/04/28 04:19:04;;;;;;;14.81;4.26;;;;;;;;;;352034;151;864993;-59
2022/04/28 04:20:07;;;;;;;14.03;5.11;;;;;;;;;;354550;151;865112;-60
2022/04/28 04:21:08;;;;;;;13.53;5.29;;;;;;;;;;354367;151;859269;-59
2022/04/28 04:22:10;;;;;;;10.50;4.34;;;;;;;;;;354621;151;858525;-58
2022/04/28 04:23:12;;;;;;;14.86;5.19;;;;;;;;;;352983;151;858268;-58
2022/04/28 04:24:13;;;;;;;12.75;5.15;;;;;;;;;;354145;151;864936;-59
2022/04/28 04:25:15;;;;;;;15.83;5.40;;;;;;;;;;352825;151;862319;-59
2022/04/28 04:26:17;;;;;;;15.31;6.07;;;;;;;;;;352664;150;857262;-60
2022/04/28 04:27:19;;;;;;;14.76;5.59;;;;;;;;;;352636;151;857748;-59
2022/04/28 04:28:21;;;;;;;13.37;4.97;;;;;;;;;;352918;150;865843;-60
2022/04/28 04:29:23;;;;;;;12.26;5.10;;;;;;;;;;351669;151;859031;-60
2022/04/28 04:33:05;;;;;;;13.49;4.86;;;;;;;;;;352184;150;865011;-59
2022/04/28 04:34:06;;;;;;;12.21;4.44;;;;;;;;;;353663;151;858999;-59
2022/04/28 04:35:08;;;;;;;16.54;4.76;;;;;;;;;;351565;151;857985;-59
2022/04/28 04:36:10;;;;;;;14.93;4.73;;;;;;;;;;354076;151;858781;-58
2022/04/28 04:37:11;;;;;;;14.29;5.35;;;;;;;;;;353359;151;857619;-59
2022/04/28 04:38:13;;;;;;;14.85;5.36;;;;;;;;;;354138;150;865860;-60
2022/04/28 04:39:15;;;;;;;15.74;6.09;;;;;;;;;;353801;150;858156;-60
2022/04/28 04:40:17;;;;;;;17.11;6.27;;;;;;;;;;353746;150;866257;-60
2022/04/28 04:41:19;;;;;;;19.75;6.92;;;;;;;;;;353476;151;857396;-60
2022/04/28 04:42:22;;;;;;;21.08;6.50;;;;;;;;;;349054;151;858041;-59
2022/04/28 04:43:24;;;;;;;14.66;6.51;;;;;;;;;;352350;151;858866;-59
2022/04/28 04:44:25;;;;;;;16.09;6.52;;;;;;;;;;352816;151;857241;-60
2022/04/28 04:45:27;;;;;;;16.76;6.47;;;;;;;;;;352006;151;863473;-59
2022/04/28 04:46:29;;;;;;;17.94;7.30;;;;;;;;;;349090;151;860156;-59
2022/04/28 04:47:30;;;;;;;16.60;6.44;;;;;;;;;;352442;151;858871;-61
2022/04/28 04:48:32;;;;;;;18.90;6.92;;;;;;;;;;352307;151;858744;-61
2022/04/28 04:49:33;;;;;;;21.51;7.21;;;;;;;;;;352567;151;858824;-60
2022/04/28 04:50:35;;;;;;;19.95;7.14;;;;;;;;;;355263;151;858006;-60
2022/04/28 04:51:37;;;;;;;22.93;7.01;;;;;;;;;;352892;150;866123;-61
2022/04/28 04:52:38;;;;;;;16.61;6.46;;;;;;;;;;355548;150;865700;-61
2022/04/28 04:53:40;;;;;;;16.11;5.84;;;;;;;;;;353676;150;858695;-60
2022/04/28 04:54:41;;;;;;;17.34;6.25;;;;;;;;;;352125;151;864864;-61
2022/04/28 04:55:43;;;;;;;15.61;5.99;;;;;;;;;;354555;151;857150;-60
2022/04/28 04:56:45;;;;;;;17.66;5.74;;;;;;;;;;354132;150;857109;-60
2022/04/28 04:57:46;;;;;;;19.89;6.45;;;;;;;;;;349817;153;866746;-61
2022/04/28 04:58:48;;;;;;;15.21;6.30;;;;;;;;;;353312;151;859206;-60
2022/04/28 04:59:50;;;;;;;20.41;6.16;;;;;;;;;;350033;151;858268;-60
2022/04/28 05:00:52;;;;;;;15.79;6.42;;;;;;;;;;353456;150;859451;-60
2022/04/28 05:01:54;;;;;;;21.14;6.77;;;;;;;;;;355718;148;864883;-59
2022/04/28 05:02:55;;;;;;;20.21;6.69;;;;;;;;;;358535;149;857228;-57
2022/04/28 05:03:57;;;;;;;21.75;7.23;;;;;;;;;;355996;149;864922;-59
2022/04/28 05:04:59;;;;;;;22.04;7.36;;;;;;;;;;352462;149;857641;-59
2022/04/28 05:06:00;;;;;;;21.41;7.74;;;;;;;;;;353743;151;865047;-59
2022/04/28 05:07:02;;;;;;;21.34;8.13;;;;;;;;;;355811;149;857343;-59
2022/04/28 05:08:04;;;;;;;23.38;8.01;;;;;;;;;;355909;149;858360;-59
2022/04/28 05:09:06;;;;;;;21.17;7.55;;;;;;;;;;358134;149;857305;-59
2022/04/28 05:10:08;;;;;;;21.09;7.83;;;;;;;;;;353568;150;858792;-59
2022/04/28 05:11:10;;;;;;;22.47;8.01;;;;;;;;;;355454;149;857346;-60
2022/04/28 05:12:12;;;;;;;26.72;8.29;;;;;;;;;;357374;148;857170;-58
2022/04/28 05:13:13;;;;;;;22.64;8.43;;;;;;;;;;353924;150;857185;-61
2022/04/28 05:14:15;;;;;;;23.91;8.81;;;;;;;;;;358148;149;857407;-59
2022/04/28 05:15:16;;;;;;;27.79;9.76;;;;;;;;;;358451;148;857304;-59
2022/04/28 05:16:18;;;;;;;28.83;10.36;;;;;;;;;;356090;149;858948;-60
2022/04/28 05:17:20;;;;;;;26.06;10.35;;;;;;;;;;356851;149;859263;-60
2022/04/28 05:18:21;;;;;;;30.27;11.09;;;;;;;;;;356832;148;865364;-60
2022/04/28 05:19:23;;;;;;;33.84;11.61;;;;;;;;;;355335;149;857222;-60
2022/04/28 05:20:24;;;;;;;36.40;12.56;;;;;;;;;;355978;149;857162;-60
2022/04/28 05:21:26;;;;;;;36.49;11.99;;;;;;;;;;354178;149;857205;-60
2022/04/28 05:22:28;;;;;;;32.28;12.12;;;;;;;;;;355571;148;857201;-60
2022/04/28 05:23:30;;;;;;;28.99;12.15;;;;;;;;;;355944;148;858994;-58
2022/04/28 05:24:31;;;;;;;31.52;12.88;;;;;;;;;;356247;151;866277;-59
2022/04/28 05:25:33;;;;;;;35.57;12.41;;;;;;;;;;356255;151;859061;-60
2022/04/28 05:26:35;;;;;;;33.95;12.23;;;;;;;;;;354272;150;859843;-59
2022/04/28 05:27:36;;;;;;;36.29;11.59;;;;;;;;;;353617;148;857744;-59
2022/04/28 05:28:38;;;;;;;32.82;12.22;;;;;;;;;;356315;149;857315;-59
2022/04/28 05:29:39;;;;;;;33.41;11.61;;;;;;;;;;358221;149;857205;-60
2022/04/28 05:30:41;;;;;;;33.72;12.41;;;;;;;;;;356323;149;864943;-59
2022/04/28 05:31:43;;;;;;;37.59;13.03;;;;;;;;;;356136;149;857603;-59
2022/04/28 05:32:44;;;;;;;40.25;13.54;;;;;;;;;;355540;149;858962;-62
2022/04/28 05:33:46;;;;;;;38.96;13.62;;;;;;;;;;354026;148;859511;-59
2022/04/28 05:34:47;;;;;;;39.54;13.84;;;;;;;;;;356202;148;860073;-61
2022/04/28 05:35:49;;;;;;;37.52;14.56;;;;;;;;;;355623;150;857682;-59
2022/04/28 05:36:50;;;;;;;40.26;12.54;;;;;;;;;;355594;149;858126;-60
2022/04/28 05:37:52;;;;;;;39.67;14.36;;;;;;;;;;356351;149;860339;-59
2022/04/28 05:38:57;;;;;;;41.85;14.86;;;;;;;;;;355752;149;857114;-59
2022/04/28 05:39:59;;;;;;;44.23;14.73;;;;;;;;;;356249;149;857159;-59
2022/04/28 05:41:01;;;;;;;49.99;14.81;;;;;;;;;;354911;148;859456;-59
2022/04/28 05:42:04;;;;;;;41.05;15.17;;;;;;;;;;354403;149;866132;-60
2022/04/28 05:45:46;;;;;;;40.30;15.72;;;;;;;;;;355781;149;865178;-60
2022/04/28 05:46:48;;;;;;;45.48;15.79;;;;;;;;;;356760;149;858669;-59
2022/04/28 05:47:49;;;;;;;40.20;14.99;;;;;;;;;;355795;148;857333;-59
2022/04/28 05:48:51;;;;;;;43.46;15.82;;;;;;;;;;355684;148;865731;-59
2022/04/28 05:49:53;;;;;;;46.96;16.57;;;;;;;;;;357621;148;865591;-59
2022/04/28 05:50:55;;;;;;;39.85;14.91;;;;;;;;;;356773;149;859241;-60
2022/04/28 05:51:57;;;;;;;42.65;15.61;;;;;;;;;;350712;152;859059;-58
2022/04/28 05:52:59;;;;;;;42.40;14.65;;;;;;;;;;349589;151;857287;-59
2022/04/28 05:54:00;;;;;;;42.72;15.31;;;;;;;;;;355906;151;857295;-59
2022/04/28 05:55:02;;;;;;;40.76;15.11;;;;;;;;;;352880;149;866337;-59
2022/04/28 05:56:04;;;;;;;38.08;14.14;;;;;;;;;;354974;149;859152;-59
2022/04/28 05:57:06;;;;;;;43.69;15.12;;;;;;;;;;356944;149;866039;-58
2022/04/28 05:58:08;;;;;;;40.38;14.66;;;;;;;;;;357123;148;857702;-59
2022/04/28 05:59:12;;;;;;;47.21;15.30;;;;;;;;;;353315;151;864921;-58
2022/04/28 06:00:16;;;;;;;44.89;15.63;;;;;;;;;;354483;148;864750;-59
2022/04/28 06:01:18;;;;;;;46.55;15.01;;;;;;;;;;354963;148;857207;-58
2022/04/28 06:02:19;;;;;;;46.63;14.44;;;;;;;;;;355222;150;857054;-59
2022/04/28 06:03:21;;;;;;;31.06;13.24;;;;;;;;;;357241;149;857362;-59
2022/04/28 06:04:23;;;;;;;33.58;13.05;;;;;;;;;;355761;148;865514;-61
2022/04/28 06:05:25;;;;;;;36.11;13.25;;;;;;;;;;356936;148;866782;-59
2022/04/28 06:06:26;;;;;;;30.63;12.74;;;;;;;;;;355472;148;865139;-57
2022/04/28 06:07:28;;;;;;;30.60;12.18;;;;;;;;;;355338;149;864953;-59
2022/04/28 06:08:30;;;;;;;38.79;12.40;;;;;;;;;;356803;148;857283;-59
2022/04/28 06:09:32;;;;;;;32.42;12.66;;;;;;;;;;355094;148;858611;-59
2022/04/28 06:10:34;;;;;;;38.27;13.43;;;;;;;;;;356150;148;857884;-60
2022/04/28 06:11:36;;;;;;;27.89;11.81;;;;;;;;;;355709;149;859011;-60
2022/04/28 06:12:37;;;;;;;39.17;13.24;;;;;;;;;;357560;149;861174;-59
2022/04/28 06:13:39;;;;;;;33.65;12.88;;;;;;;;;;356766;148;859378;-59
2022/04/28 06:14:41;;;;;;;33.56;12.05;;;;;;;;;;356353;150;864894;-59
2022/04/28 06:15:42;;;;;;;30.09;11.39;;;;;;;;;;356268;151;857145;-59
2022/04/28 06:16:44;;;;;;;36.61;12.69;;;;;;;;;;353600;151;857232;-59
2022/04/28 06:17:46;;;;;;;32.97;11.86;;;;;;;;;;355798;151;866763;-59
2022/04/28 06:18:47;;;;;;;28.74;11.69;;;;;;;;;;357024;148;858959;-58
2022/04/28 06:19:49;;;;;;;32.34;12.29;;;;;;;;;;355056;151;858107;-59
2022/04/28 06:20:51;;;;;;;30.93;11.21;;;;;;;;;;357249;150;865627;-60
2022/04/28 06:21:52;;;;;;;30.66;11.44;;;;;;;;;;356483;151;858144;-60
2022/04/28 06:22:54;;;;;;;34.47;12.23;;;;;;;;;;354711;151;866168;-59
2022/04/28 06:23:56;;;;;;;30.49;11.21;;;;;;;;;;353586;152;858890;-56
2022/04/28 06:24:58;;;;;;;27.02;10.83;;;;;;;;;;354916;148;857900;-63
2022/04/28 06:26:01;;;;;;;36.13;12.38;;;;;;;;;;354437;148;858658;-60
2022/04/28 06:27:04;;;;;;;30.47;11.41;;;;;;;;;;356411;150;857741;-59
2022/04/28 06:28:05;;;;;;;30.91;11.66;;;;;;;;;;354720;149;857731;-58
2022/04/28 06:29:07;;;;;;;30.54;11.25;;;;;;;;;;357066;150;859195;-59
2022/04/28 06:30:09;;;;;;;28.82;10.34;;;;;;;;;;355336;151;866852;-59
2022/04/28 06:31:11;;;;;;;31.04;11.69;;;;;;;;;;355591;148;858613;-59
2022/04/28 06:32:13;;;;;;;27.35;9.76;;;;;;;;;;354937;149;864831;-60